Terminal Aerodrome Forecast
Issued by NWS Green Bay, WI

Home | Current Version | Previous Version | Text Only | Print | Product List | Glossary Off
Versions: 1 2 3 4 5 6 7 8 9 10 11 12 13 14 15 16 17 18 19 20 21 22

000
FTUS43 KGRB 170250 AAC
TAFGRB
TAF AMD
KGRB 170250Z 1703/1724 05010KT 2SM -RA BR OVC006
      TEMPO 1703/1706 3SM -FZRA
     FM170600 03009KT 1 1/2SM -RA BR OVC006
     FM171500 01009KT 5SM -SHSN BR OVC010
     FM171900 33007KT P6SM BKN030=

USA.gov is the U.S. government's official web portal to all federal, state and local government web resources and services.